Time;durP1;ratioP1;P1;durP2;ratioP2;P2;SDS_P1;SDS_P2;PMS_P1;PMS_P2;Temp;Humidity;BMP_temperature;BMP_pressure;BME280_temperature;BME280_humidity;BME280_pressure;Samples;Min_cycle;Max_cycle;Signal;HPM_P1;HPM_P2
2022/04/14 00:00:12;;;;;;;;;22.33;21.00;;;;;14.61;74.56;101804.13;5075069;28;45401;-70
2022/04/14 00:02:37;;;;;;;;;27.00;20.67;;;;;14.59;74.64;101794.38;5070180;28;45335;-70
2022/04/14 00:05:03;;;;;;;;;25.75;23.75;;;;;14.56;74.56;101803.72;5073142;28;45543;-69
2022/04/14 00:07:29;;;;;;;;;21.33;19.00;;;;;14.50;75.04;101809.78;5070683;28;45248;-70
2022/04/14 00:09:54;;;;;;;;;21.67;20.33;;;;;14.41;75.00;101799.72;5072246;28;45399;-70
2022/04/14 00:12:19;;;;;;;;;23.00;22.00;;;;;14.40;75.29;101808.94;5067704;28;45265;-70
2022/04/14 00:14:45;;;;;;;;;19.67;16.67;;;;;14.36;75.93;101799.28;5071029;28;45340;-70
2022/04/14 00:17:12;;;;;;;;;22.00;21.67;;;;;14.37;75.68;101803.75;5077806;28;45220;-70
2022/04/14 00:19:37;;;;;;;;;19.67;17.67;;;;;14.34;75.82;101802.16;5072079;28;45520;-70
2022/04/14 00:22:03;;;;;;;;;20.33;19.00;;;;;14.34;75.55;101809.50;5066380;28;45369;-70
2022/04/14 00:24:28;;;;;;;;;24.33;22.00;;;;;14.28;75.72;101805.47;5068574;28;45282;-70
2022/04/14 00:26:54;;;;;;;;;24.00;22.33;;;;;14.28;76.18;101815.56;5065606;28;45584;-70
2022/04/14 00:29:19;;;;;;;;;20.00;20.00;;;;;14.30;75.81;101808.06;5080729;27;45417;-69
2022/04/14 00:31:44;;;;;;;;;24.67;24.00;;;;;14.32;75.62;101809.63;5063808;28;45302;-69
2022/04/14 00:34:10;;;;;;;;;22.33;20.00;;;;;14.29;75.60;101809.94;5064826;28;45525;-69
2022/04/14 00:36:35;;;;;;;;;27.33;22.33;;;;;14.24;75.88;101800.47;5061875;28;45477;-69
2022/04/14 00:39:01;;;;;;;;;21.33;20.00;;;;;14.23;76.36;101806.94;5075879;28;47844;-69
2022/04/14 00:41:27;;;;;;;;;21.00;19.33;;;;;14.22;75.88;101799.75;5072500;28;45378;-68
2022/04/14 00:43:53;;;;;;;;;23.33;22.00;;;;;14.21;76.38;101803.47;5076939;28;45480;-68
2022/04/14 00:46:21;;;;;;;;;20.33;16.00;;;;;14.16;76.56;101795.72;5076504;28;45413;-69
2022/04/14 00:48:49;;;;;;;;;19.00;19.00;;;;;14.12;77.06;101798.88;5066731;28;46392;-68
2022/04/14 00:51:14;;;;;;;;;23.75;20.25;;;;;14.07;77.09;101793.88;5078862;28;45330;-68
2022/04/14 00:53:39;;;;;;;;;24.67;24.67;;;;;14.00;77.29;101801.78;5067424;28;45296;-68
2022/04/14 00:56:06;;;;;;;;;23.67;22.67;;;;;13.99;77.67;101801.94;5082209;28;45515;-68
2022/04/14 00:58:33;;;;;;;;;22.67;22.00;;;;;14.00;77.64;101799.06;5070227;28;46066;-69
2022/04/14 01:00:58;;;;;;;;;20.33;20.00;;;;;13.99;77.05;101799.19;5080167;28;45332;-68
2022/04/14 01:03:24;;;;;;;;;23.00;20.33;;;;;13.93;77.19;101795.19;5067773;27;45276;-68
2022/04/14 01:05:49;;;;;;;;;24.00;22.00;;;;;13.95;77.38;101812.25;5074405;28;45635;-69
2022/04/14 01:08:17;;;;;;;;;22.33;21.67;;;;;13.92;77.33;101793.44;5065084;28;45690;-69
2022/04/14 01:10:47;;;;;;;;;24.50;21.00;;;;;13.97;77.42;101806.66;5077193;28;45379;-69
2022/04/14 01:13:16;;;;;;;;;24.33;22.67;;;;;13.89;77.06;101807.38;5067211;27;45182;-69
2022/04/14 01:15:42;;;;;;;;;27.25;25.00;;;;;13.83;78.08;101810.69;5075085;28;45473;-69
2022/04/14 01:18:08;;;;;;;;;28.67;25.00;;;;;13.80;78.29;101810.13;5067717;28;47216;-69
2022/04/14 01:20:35;;;;;;;;;26.25;26.25;;;;;13.77;78.27;101804.94;5073827;28;45319;-69
2022/04/14 01:23:03;;;;;;;;;26.50;24.50;;;;;13.75;78.64;101812.41;5084174;27;45418;-69
2022/04/14 01:25:30;;;;;;;;;25.75;23.25;;;;;13.73;78.61;101815.31;5073717;28;45330;-69
2022/04/14 01:27:55;;;;;;;;;29.00;25.33;;;;;13.73;78.66;101808.97;5073702;27;47110;-69
2022/04/14 01:30:21;;;;;;;;;26.50;25.25;;;;;13.72;79.24;101808.13;5073805;27;45483;-69
2022/04/14 01:32:47;;;;;;;;;23.67;23.67;;;;;13.71;79.27;101811.84;5064599;28;45548;-69
2022/04/14 01:35:13;;;;;;;;;23.67;23.33;;;;;13.71;79.20;101816.44;5080876;28;45583;-69
2022/04/14 01:37:38;;;;;;;;;24.25;24.00;;;;;13.74;79.15;101822.47;5063863;28;46556;-69
2022/04/14 01:40:04;;;;;;;;;25.00;22.33;;;;;13.72;78.92;101813.59;5077679;28;45341;-69
2022/04/14 01:42:30;;;;;;;;;25.50;24.25;;;;;13.76;78.75;101822.34;5065323;28;45265;-69
2022/04/14 01:44:55;;;;;;;;;22.00;21.00;;;;;13.78;78.33;101823.94;5076654;28;45461;-69
2022/04/14 01:47:20;;;;;;;;;28.00;25.00;;;;;13.75;78.60;101821.47;5075155;28;48148;-69
2022/04/14 01:49:46;;;;;;;;;24.33;23.33;;;;;13.72;78.55;101819.03;5076176;28;45826;-69
2022/04/14 01:52:11;;;;;;;;;27.50;22.25;;;;;13.73;78.51;101812.59;5075160;27;45893;-69
2022/04/14 01:54:37;;;;;;;;;23.25;23.25;;;;;13.75;78.50;101805.09;5074881;28;45700;-69
2022/04/14 01:57:03;;;;;;;;;23.75;21.50;;;;;13.76;78.40;101804.09;5064978;28;46618;-69
2022/04/14 01:59:28;;;;;;;;;21.50;20.75;;;;;13.74;78.35;101800.63;5075757;28;45430;-70
2022/04/14 02:01:53;;;;;;;;;25.00;22.50;;;;;13.69;78.48;101796.59;5074343;27;45301;-70
2022/04/14 02:04:19;;;;;;;;;24.75;24.75;;;;;13.68;78.31;101806.66;5077687;28;45429;-70
2022/04/14 02:06:44;;;;;;;;;28.50;23.75;;;;;13.71;78.78;101798.19;5079736;28;47023;-68
2022/04/14 02:09:09;;;;;;;;;25.50;23.00;;;;;13.69;77.95;101797.47;5071457;28;45383;-69
2022/04/14 02:11:35;;;;;;;;;22.33;19.67;;;;;13.70;78.60;101801.94;5072222;28;45400;-69
2022/04/14 02:14:00;;;;;;;;;21.00;20.00;;;;;13.69;78.55;101799.34;5070701;28;45399;-69
2022/04/14 02:16:26;;;;;;;;;32.00;25.67;;;;;13.67;78.58;101809.53;5070499;28;45442;-69
2022/04/14 02:18:51;;;;;;;;;27.25;24.50;;;;;13.61;78.90;101813.69;5069612;28;45394;-69
2022/04/14 02:21:16;;;;;;;;;25.75;25.75;;;;;13.58;79.70;101803.94;5078733;27;45366;-69
2022/04/14 02:23:42;;;;;;;;;17.67;17.67;;;;;13.60;79.21;101807.38;5067998;28;45357;-69
2022/04/14 02:26:07;;;;;;;;;27.25;24.00;;;;;13.60;78.80;101803.78;5068295;28;46318;-69
2022/04/14 02:28:33;;;;;;;;;26.25;23.25;;;;;13.56;78.58;101796.88;5080413;27;45444;-69
2022/04/14 02:30:58;;;;;;;;;20.25;20.25;;;;;13.50;79.43;101813.84;5066170;28;45627;-69
2022/04/14 02:33:24;;;;;;;;;32.50;29.75;;;;;13.37;80.56;101800.44;5074551;28;45366;-69
2022/04/14 02:35:49;;;;;;;;;27.50;26.25;;;;;13.32;80.63;101805.47;5080032;28;45488;-69
2022/04/14 02:38:14;;;;;;;;;27.50;27.25;;;;;13.32;80.94;101805.47;5063650;28;45374;-69
2022/04/14 02:40:40;;;;;;;;;34.50;30.50;;;;;13.31;80.85;101803.72;5079373;28;46037;-69
2022/04/14 02:43:05;;;;;;;;;29.50;29.25;;;;;13.37;80.53;101805.06;5069898;28;45450;-69
2022/04/14 02:45:31;;;;;;;;;27.25;26.25;;;;;13.44;80.42;101808.97;5075752;28;47960;-69
2022/04/14 02:47:56;;;;;;;;;37.00;33.50;;;;;13.42;80.44;101816.41;5063891;28;45192;-69
2022/04/14 02:50:22;;;;;;;;;34.25;33.00;;;;;13.44;80.04;101811.69;5073078;28;45442;-69
2022/04/14 02:52:48;;;;;;;;;35.25;31.50;;;;;13.43;79.95;101818.16;5073416;27;45430;-69
2022/04/14 02:55:14;;;;;;;;;31.00;29.50;;;;;13.43;79.54;101809.97;5076521;28;45481;-69
2022/04/14 02:57:39;;;;;;;;;34.00;32.75;;;;;13.39;79.68;101812.09;5072528;28;45515;-69
2022/04/14 03:00:09;;;;;;;;;41.00;35.00;;;;;13.37;79.78;101802.34;5074965;28;45415;-69
2022/04/14 03:02:34;;;;;;;;;32.25;28.50;;;;;13.37;79.58;101813.25;5073386;28;45531;-69
2022/04/14 03:05:00;;;;;;;;;34.25;33.75;;;;;13.33;79.91;101812.66;5078408;28;46373;-69
2022/04/14 03:07:25;;;;;;;;;39.25;34.50;;;;;13.33;80.02;101820.84;5068920;28;45337;-70
2022/04/14 03:09:51;;;;;;;;;45.00;38.00;;;;;13.25;80.50;101820.69;5072322;28;45542;-69
2022/04/14 03:12:16;;;;;;;;;47.25;39.00;;;;;13.12;81.06;101823.63;5068112;28;45169;-69
2022/04/14 03:14:43;;;;;;;;;39.00;35.75;;;;;13.12;81.10;101826.34;5070846;28;45494;-69
2022/04/14 03:17:09;;;;;;;;;34.00;33.25;;;;;13.18;81.46;101824.97;5066662;28;45214;-69
2022/04/14 03:19:34;;;;;;;;;38.50;31.75;;;;;13.22;81.15;101829.16;5071993;28;45655;-69
2022/04/14 03:21:59;;;;;;;;;33.25;31.25;;;;;13.29;80.53;101822.16;5073200;28;45203;-69
2022/04/14 03:24:25;;;;;;;;;33.00;33.00;;;;;13.27;79.82;101820.53;5068325;28;45685;-70
2022/04/14 03:26:51;;;;;;;;;34.25;29.25;;;;;13.29;80.08;101821.28;5071712;28;45776;-70
2022/04/14 03:29:16;;;;;;;;;31.00;31.00;;;;;13.30;80.04;101823.84;5080845;27;45456;-69
2022/04/14 03:31:42;;;;;;;;;34.00;32.75;;;;;13.26;79.60;101816.94;5073297;28;45584;-69
2022/04/14 03:34:07;;;;;;;;;30.00;29.50;;;;;13.27;79.96;101823.28;5068876;28;45474;-69
2022/04/14 03:36:32;;;;;;;;;36.50;32.00;;;;;13.27;79.42;101829.59;5073066;28;45441;-69
2022/04/14 03:38:57;;;;;;;;;36.25;32.00;;;;;13.19;79.97;101835.75;5079264;28;45401;-69
2022/04/14 03:41:23;;;;;;;;;35.25;32.50;;;;;13.17;80.42;101834.16;5080688;28;45310;-69
2022/04/14 03:43:49;;;;;;;;;34.75;32.25;;;;;13.22;80.34;101837.34;5066412;28;46670;-70
2022/04/14 03:46:15;;;;;;;;;29.25;29.25;;;;;13.20;79.61;101845.66;5080460;28;45396;-69
2022/04/14 03:48:42;;;;;;;;;32.25;31.00;;;;;13.18;79.78;101835.88;5068905;27;45400;-69
2022/04/14 03:51:09;;;;;;;;;28.75;28.25;;;;;13.21;79.75;101833.75;5072961;27;45658;-69
2022/04/14 03:53:34;;;;;;;;;44.25;36.75;;;;;13.17;79.68;101835.00;5064386;28;45355;-69
2022/04/14 03:55:59;;;;;;;;;37.50;34.75;;;;;13.20;79.39;101834.75;5077774;28;45384;-69
2022/04/14 03:58:25;;;;;;;;;43.75;36.75;;;;;13.14;80.16;101839.91;5067289;28;45175;-69
2022/04/14 04:00:50;;;;;;;;;39.75;34.25;;;;;13.14;79.91;101837.19;5077047;28;45198;-69
2022/04/14 04:03:16;;;;;;;;;37.50;34.25;;;;;13.15;79.61;101837.00;5064535;28;48596;-69
2022/04/14 04:05:41;;;;;;;;;32.00;31.75;;;;;13.18;79.55;101836.75;5074648;27;45423;-69
2022/04/14 04:08:07;;;;;;;;;35.75;35.00;;;;;13.14;79.37;101835.31;5067827;28;45362;-69
2022/04/14 04:10:33;;;;;;;;;37.00;33.25;;;;;13.14;79.10;101829.84;5073967;28;45330;-69
2022/04/14 04:12:58;;;;;;;;;31.25;30.00;;;;;13.14;79.04;101823.53;5066246;28;45629;-69
2022/04/14 04:15:23;;;;;;;;;38.25;30.75;;;;;13.10;79.13;101817.44;5074445;28;45454;-69
2022/04/14 04:17:51;;;;;;;;;37.00;32.00;;;;;13.11;79.26;101824.63;5068954;28;45357;-69
2022/04/14 04:20:17;;;;;;;;;37.25;33.50;;;;;13.07;79.30;101833.25;5072283;28;45460;-69
2022/04/14 04:22:43;;;;;;;;;36.00;33.50;;;;;13.03;79.50;101838.09;5065311;28;45276;-69
2022/04/14 04:25:10;;;;;;;;;32.00;29.75;;;;;12.98;79.75;101834.94;5067457;28;45250;-68
2022/04/14 04:27:36;;;;;;;;;35.75;32.75;;;;;12.88;80.04;101828.56;5068465;27;45251;-68
2022/04/14 04:30:06;;;;;;;;;36.25;32.50;;;;;12.88;80.87;101829.41;5080809;27;45527;-68
2022/04/14 04:32:34;;;;;;;;;37.50;34.00;;;;;12.88;80.79;101839.47;5065277;28;46812;-68
2022/04/14 04:35:04;;;;;;;;;42.25;35.00;;;;;12.85;81.19;101840.63;5073143;28;45341;-68
2022/04/14 04:37:30;;;;;;;;;43.25;34.50;;;;;12.82;81.31;101832.69;5067567;27;45410;-68
2022/04/14 04:39:56;;;;;;;;;32.25;30.50;;;;;12.81;81.13;101847.34;5077343;28;48107;-68
2022/04/14 04:42:22;;;;;;;;;41.50;34.75;;;;;12.80;80.68;101847.47;5065677;27;47111;-68
2022/04/14 04:44:47;;;;;;;;;37.25;33.50;;;;;12.84;80.77;101862.56;5075107;28;45528;-68
2022/04/14 04:47:13;;;;;;;;;27.75;22.25;;;;;12.82;81.16;101864.56;5078240;28;45417;-68
2022/04/14 04:49:38;;;;;;;;;37.50;33.75;;;;;12.76;81.50;101863.25;5072687;28;45518;-68
2022/04/14 04:52:04;;;;;;;;;38.25;34.50;;;;;12.80;81.85;101866.56;5069087;28;45627;-68
2022/04/14 04:54:29;;;;;;;;;40.00;35.00;;;;;12.69;81.90;101856.59;5077766;28;45441;-69
2022/04/14 04:56:55;;;;;;;;;38.50;33.25;;;;;12.71;82.02;101857.31;5065975;28;45251;-70
2022/04/14 04:59:20;;;;;;;;;36.25;31.25;;;;;12.77;82.01;101869.56;5071698;28;45390;-69
2022/04/14 05:01:46;;;;;;;;;38.25;34.00;;;;;12.77;81.34;101864.13;5073423;28;45505;-68
2022/04/14 05:04:11;;;;;;;;;36.00;31.00;;;;;12.80;81.41;101874.72;5071676;28;45494;-70
2022/04/14 05:06:39;;;;;;;;;33.00;31.50;;;;;12.78;81.35;101874.03;5073941;27;45259;-69
2022/04/14 05:09:05;;;;;;;;;39.25;33.75;;;;;12.81;80.89;101862.81;5070867;28;45539;-68
2022/04/14 05:11:31;;;;;;;;;32.50;30.75;;;;;12.80;80.24;101863.81;5070984;27;45450;-68
2022/04/14 05:13:56;;;;;;;;;31.75;30.75;;;;;12.72;80.06;101855.44;5068587;28;45330;-68
2022/04/14 05:16:22;;;;;;;;;38.50;32.25;;;;;12.73;80.47;101866.22;5071370;28;45816;-68
2022/04/14 05:18:48;;;;;;;;;37.50;34.50;;;;;12.70;80.55;101871.97;5075002;28;45431;-70
2022/04/14 05:21:14;;;;;;;;;40.00;34.25;;;;;12.73;80.82;101868.09;5070245;27;45477;-68
2022/04/14 05:23:40;;;;;;;;;36.00;34.25;;;;;12.74;80.60;101875.28;5071177;28;45381;-70
2022/04/14 05:26:06;;;;;;;;;31.75;30.50;;;;;12.81;80.62;101879.19;5076397;28;45464;-69
2022/04/14 05:28:31;;;;;;;;;39.50;34.50;;;;;12.83;80.72;101880.78;5080303;27;45348;-69
2022/04/14 05:30:56;;;;;;;;;43.25;37.75;;;;;12.86;80.14;101879.63;5075445;28;46632;-68
2022/04/14 05:33:22;;;;;;;;;38.75;36.00;;;;;12.82;80.51;101883.66;5063354;28;45279;-69
2022/04/14 05:35:47;;;;;;;;;42.00;35.50;;;;;12.87;80.11;101886.81;5067581;28;45364;-69
2022/04/14 05:38:13;;;;;;;;;38.75;36.25;;;;;12.88;80.08;101891.28;5069179;28;45319;-69
2022/04/14 05:40:41;;;;;;;;;38.25;33.25;;;;;12.91;80.01;101893.75;5077323;28;45483;-69
2022/04/14 05:43:28;;;;;;;;;42.25;34.25;;;;;13.00;79.67;101894.81;5078569;28;45464;-69
2022/04/14 05:45:56;;;;;;;;;42.25;36.00;;;;;13.07;79.34;101890.53;5074535;28;45339;-69
2022/04/14 05:48:22;;;;;;;;;34.75;33.75;;;;;13.12;79.24;101886.38;5074571;28;45334;-69
2022/04/14 05:50:49;;;;;;;;;38.00;34.50;;;;;13.21;79.20;101896.53;5077699;27;46602;-69
2022/04/14 05:53:16;;;;;;;;;34.25;32.50;;;;;13.32;79.05;101897.41;5069605;28;45431;-69
2022/04/14 05:55:43;;;;;;;;;36.75;32.75;;;;;13.58;78.45;101896.78;5080475;28;45472;-70
2022/04/14 05:58:09;;;;;;;;;36.50;33.25;;;;;13.83;77.50;101887.19;5069464;27;45491;-69
2022/04/14 06:00:36;;;;;;;;;27.25;26.00;;;;;13.92;76.21;101890.94;5075061;28;45871;-69
2022/04/14 06:03:02;;;;;;;;;34.50;33.00;;;;;13.95;76.33;101896.13;5069279;28;45501;-69
2022/04/14 06:05:28;;;;;;;;;32.50;30.25;;;;;13.95;76.20;101893.41;5072860;28;45737;-69
2022/04/14 06:07:54;;;;;;;;;31.00;29.75;;;;;13.97;76.29;101891.38;5068973;28;45534;-69
2022/04/14 06:10:20;;;;;;;;;32.00;30.00;;;;;14.03;75.56;101898.97;5071859;28;45411;-69
2022/04/14 06:12:45;;;;;;;;;33.25;29.50;;;;;14.04;75.75;101890.66;5067992;28;45362;-67
2022/04/14 06:15:11;;;;;;;;;34.00;32.50;;;;;14.06;75.89;101897.84;5070585;28;45364;-69
2022/04/14 06:17:36;;;;;;;;;25.75;20.50;;;;;14.06;75.79;101915.09;5067816;28;45477;-69
2022/04/14 06:20:03;;;;;;;;;34.00;31.50;;;;;14.37;75.46;101913.97;5068055;28;45414;-69
2022/04/14 06:22:29;;;;;;;;;36.75;33.50;;;;;14.59;74.63;101923.78;5067566;28;45354;-70
2022/04/14 06:24:58;;;;;;;;;41.00;34.75;;;;;14.63;74.18;101914.25;5076101;28;45271;-70
2022/04/14 06:27:23;;;;;;;;;42.25;34.75;;;;;14.68;74.27;101933.81;5064530;27;45406;-68
2022/04/14 06:29:49;;;;;;;;;40.75;36.00;;;;;14.65;74.09;101928.66;5083161;27;47785;-70
2022/04/14 06:32:14;;;;;;;;;36.00;34.00;;;;;14.50;74.23;101930.09;5063369;28;45332;-70
2022/04/14 06:34:39;;;;;;;;;40.75;36.25;;;;;14.47;74.20;101922.19;5069594;28;45426;-69
2022/04/14 06:37:05;;;;;;;;;30.50;30.50;;;;;14.51;74.48;101936.44;5066955;28;45442;-69
2022/04/14 06:39:30;;;;;;;;;43.25;36.00;;;;;14.55;74.16;101938.72;5069500;28;45597;-68
2022/04/14 06:41:56;;;;;;;;;41.50;36.75;;;;;14.64;74.44;101937.88;5083210;27;45322;-68
2022/04/14 06:44:21;;;;;;;;;47.00;36.50;;;;;14.63;73.60;101933.41;5067419;28;45355;-69
2022/04/14 06:46:46;;;;;;;;;48.75;37.00;;;;;14.70;74.02;101950.09;5080581;28;45384;-69
2022/04/14 06:49:12;;;;;;;;;47.00;38.50;;;;;14.63;73.42;101941.59;5068456;28;45370;-70
2022/04/14 06:51:37;;;;;;;;;40.75;37.00;;;;;14.67;73.81;101942.19;5078260;28;45270;-70
2022/04/14 06:54:03;;;;;;;;;50.00;37.75;;;;;14.58;74.29;101949.38;5067683;28;45291;-69
2022/04/14 06:56:28;;;;;;;;;49.50;40.50;;;;;14.60;74.35;101941.91;5072356;27;45362;-69
2022/04/14 06:58:54;;;;;;;;;47.00;38.75;;;;;14.72;74.34;101946.19;5066295;28;45273;-69
2022/04/14 07:01:19;;;;;;;;;45.00;37.00;;;;;14.71;74.05;101949.06;5075676;27;45318;-70
2022/04/14 07:03:44;;;;;;;;;44.75;38.25;;;;;14.68;74.41;101955.69;5066575;28;45333;-69
2022/04/14 07:06:10;;;;;;;;;40.75;36.00;;;;;14.84;74.15;101949.63;5074971;27;45692;-70
2022/04/14 07:08:38;;;;;;;;;46.75;38.00;;;;;14.87;73.26;101943.00;5079970;28;47216;-69
2022/04/14 07:11:04;;;;;;;;;44.75;36.25;;;;;14.92;73.46;101941.53;5074127;28;45330;-70
2022/04/14 07:13:29;;;;;;;;;37.00;32.25;;;;;14.85;73.01;101943.16;5067145;28;45409;-70
2022/04/14 07:15:55;;;;;;;;;37.75;34.50;;;;;14.89;73.16;101947.34;5073228;28;45704;-70
2022/04/14 07:18:21;;;;;;;;;37.75;33.25;;;;;14.94;72.59;101955.09;5064808;27;46025;-70
2022/04/14 07:20:47;;;;;;;;;33.00;32.75;;;;;15.00;72.94;101954.50;5079710;28;46289;-70
2022/04/14 07:23:12;;;;;;;;;40.50;34.00;;;;;14.91;73.05;101955.38;5062622;28;45783;-70
2022/04/14 07:25:38;;;;;;;;;32.50;28.25;;;;;14.91;72.93;101953.50;5070104;28;45271;-70
2022/04/14 07:28:03;;;;;;;;;33.75;30.00;;;;;14.85;72.83;101959.56;5072807;27;48369;-70
2022/04/14 07:30:29;;;;;;;;;34.25;32.00;;;;;14.77;73.30;101952.09;5070399;27;45298;-69
2022/04/14 07:32:55;;;;;;;;;36.00;30.75;;;;;14.70;73.28;101958.28;5061418;28;45313;-69
2022/04/14 07:35:22;;;;;;;;;37.50;32.25;;;;;14.76;73.46;101963.16;5078042;28;45462;-69
2022/04/14 07:37:51;;;;;;;;;33.75;30.25;;;;;14.72;73.40;101959.00;5061938;28;46534;-69
2022/04/14 07:40:17;;;;;;;;;33.25;32.00;;;;;14.85;73.32;101961.44;5070986;28;45166;-69
2022/04/14 07:42:44;;;;;;;;;29.75;27.75;;;;;14.94;72.92;101971.50;5061265;28;45636;-69
2022/04/14 07:45:11;;;;;;;;;35.25;30.50;;;;;14.97;72.65;101971.22;5073655;28;45313;-69
2022/04/14 07:47:42;;;;;;;;;31.00;24.25;;;;;15.06;72.39;101970.31;5075330;28;47468;-69
2022/04/14 07:50:13;;;;;;;;;39.75;33.25;;;;;15.22;72.07;101976.03;5073693;28;45297;-69
2022/04/14 07:52:51;;;;;;;;;32.00;32.00;;;;;15.41;70.61;101973.25;5071501;28;45320;-69
2022/04/14 07:55:25;;;;;;;;;29.75;28.00;;;;;15.61;70.18;101976.81;5073872;28;45404;-68
2022/04/14 07:57:52;;;;;;;;;33.50;29.50;;;;;15.87;69.02;101976.94;5070064;28;46049;-69
2022/04/14 08:00:18;;;;;;;;;35.00;31.50;;;;;15.91;68.77;101981.13;5072002;28;45409;-70
2022/04/14 08:02:58;;;;;;;;;27.33;26.00;;;;;16.18;67.86;101980.22;5070696;28;45391;-70
2022/04/14 08:05:36;;;;;;;;;22.33;22.00;;;;;16.50;67.81;101977.81;5078459;27;45354;-70
2022/04/14 08:08:06;;;;;;;;;27.00;23.25;;;;;16.80;66.39;101972.97;5069263;27;47148;-70
2022/04/14 08:10:32;;;;;;;;;28.50;25.25;;;;;16.71;64.11;101966.53;5073386;28;45892;-70
2022/04/14 08:12:58;;;;;;;;;32.25;26.75;;;;;16.79;63.98;101974.84;5070070;27;45374;-69
2022/04/14 08:15:24;;;;;;;;;26.00;23.00;;;;;17.00;65.42;101956.13;5080457;28;45337;-69
2022/04/14 08:17:50;;;;;;;;;31.25;29.50;;;;;17.45;64.19;101971.53;5070431;28;48174;-69
2022/04/14 08:20:17;;;;;;;;;28.25;26.75;;;;;17.77;63.31;101965.31;5078487;28;45423;-69
2022/04/14 08:22:45;;;;;;;;;26.00;23.00;;;;;18.05;62.77;101974.19;5068245;28;45503;-69
2022/04/14 08:25:13;;;;;;;;;32.00;28.00;;;;;18.16;61.16;101974.75;5070870;28;45461;-70
2022/04/14 08:27:39;;;;;;;;;32.00;28.75;;;;;17.89;60.98;101981.38;5069845;27;45384;-69
2022/04/14 08:30:05;;;;;;;;;34.00;29.00;;;;;18.24;61.31;101973.91;5080062;27;45330;-71
2022/04/14 08:32:30;;;;;;;;;32.25;26.75;;;;;18.61;61.34;101966.09;5070599;28;45381;-70
2022/04/14 08:34:56;;;;;;;;;23.33;21.33;;;;;19.08;59.57;101970.00;5082366;28;45257;-70
2022/04/14 08:37:21;;;;;;;;;26.75;25.25;;;;;19.38;58.44;101978.38;5068719;28;46583;-71
2022/04/14 08:39:47;;;;;;;;;26.00;25.67;;;;;19.56;59.23;101966.31;5070931;28;45351;-70
2022/04/14 08:42:20;;;;;;;;;26.67;25.67;;;;;19.89;58.00;101967.88;5068935;28;46066;-71
2022/04/14 08:44:55;;;;;;;;;27.00;25.33;;;;;20.20;57.21;101977.03;5075355;28;45389;-70
2022/04/14 08:47:22;;;;;;;;;23.33;23.33;;;;;20.47;56.88;101977.56;5066017;28;45445;-70
2022/04/14 08:49:48;;;;;;;;;28.67;28.00;;;;;20.68;56.64;101980.53;5076271;28;45374;-71
2022/04/14 08:52:15;;;;;;;;;27.00;26.00;;;;;20.82;54.18;101974.19;5074365;27;45394;-70
2022/04/14 08:54:43;;;;;;;;;20.33;20.33;;;;;21.01;54.32;101977.50;5076035;28;45402;-70
2022/04/14 08:57:13;;;;;;;;;28.33;26.67;;;;;20.72;52.21;101984.66;5071455;27;47389;-70
2022/04/14 08:59:41;;;;;;;;;27.67;27.00;;;;;20.84;53.44;101974.88;5075055;28;45475;-70
2022/04/14 09:02:17;;;;;;;;;25.67;20.67;;;;;21.16;54.85;101972.84;5071786;27;45467;-69
2022/04/14 09:04:43;;;;;;;;;33.25;28.75;;;;;20.75;52.16;101975.97;5074076;28;45313;-69
2022/04/14 09:07:13;;;;;;;;;26.67;21.00;;;;;21.11;52.86;101980.84;5070094;28;46069;-69
2022/04/14 09:09:39;;;;;;;;;20.00;17.33;;;;;21.51;52.62;101974.06;5070314;28;45409;-70
2022/04/14 09:12:06;;;;;;;;;32.67;24.00;;;;;21.76;51.29;101981.03;5067903;28;45455;-69
2022/04/14 09:14:34;;;;;;;;;26.33;26.00;;;;;21.86;50.17;101976.03;5072239;28;45347;-68
2022/04/14 09:17:02;;;;;;;;;21.67;19.67;;;;;21.65;48.77;101975.97;5074622;28;48221;-71
2022/04/14 09:19:29;;;;;;;;;24.33;22.33;;;;;21.80;49.54;101978.72;5072520;28;45440;-70
2022/04/14 09:21:59;;;;;;;;;30.00;26.75;;;;;21.91;49.29;101972.72;5065948;28;45257;-70
2022/04/14 09:24:43;;;;;;;;;16.33;16.00;;;;;21.91;50.68;101972.72;5077667;28;45593;-70
2022/04/14 09:27:09;;;;;;;;;22.33;21.33;;;;;22.30;49.57;101970.44;5072111;28;45533;-70
2022/04/14 09:29:46;;;;;;;;;23.00;21.67;;;;;22.55;49.06;101953.47;5081890;27;45811;-70
2022/04/14 09:32:11;;;;;;;;;18.00;17.33;;;;;22.96;47.68;101973.03;5068880;28;45370;-70
2022/04/14 09:34:51;;;;;;;;;20.67;17.67;;;;;23.16;48.73;101977.69;5072648;28;45283;-70
2022/04/14 09:37:17;;;;;;;;;21.00;21.00;;;;;22.80;47.00;101974.19;5067305;28;48468;-70
2022/04/14 09:39:57;;;;;;;;;19.33;19.00;;;;;23.00;48.97;101961.38;5072591;28;45419;-70
2022/04/14 09:42:24;;;;;;;;;18.00;16.00;;;;;23.36;46.97;101960.34;5066824;28;45225;-71
2022/04/14 09:44:52;;;;;;;;;20.00;20.00;;;;;23.54;47.83;101953.25;5074582;28;45422;-71
2022/04/14 09:47:36;;;;;;;;;16.67;15.67;;;;;23.81;46.06;101951.47;5074415;27;47363;-72
2022/04/14 09:50:01;;;;;;;;;25.33;21.00;;;;;23.41;45.04;101949.50;5074919;28;45793;-70
2022/04/14 09:52:27;;;;;;;;;23.00;23.00;;;;;23.24;45.81;101949.81;5064139;28;45389;-72
2022/04/14 09:55:06;;;;;;;;;21.00;20.00;;;;;23.59;45.97;101953.50;5075775;28;45411;-71
2022/04/14 09:57:32;;;;;;;;;16.67;16.67;;;;;23.99;46.42;101948.97;5071835;28;46439;-72
2022/04/14 09:59:57;;;;;;;;;21.33;19.33;;;;;24.22;43.39;101956.13;5074007;28;45408;-70
2022/04/14 10:02:23;;;;;;;;;15.67;14.33;;;;;24.50;46.22;101967.09;5069924;28;45860;-71
2022/04/14 10:04:48;;;;;;;;;16.33;15.00;;;;;24.28;42.28;101964.50;5075916;28;45614;-72
2022/04/14 10:07:19;;;;;;;;;22.33;21.67;;;;;23.95;42.68;101969.91;5068176;28;48306;-69
2022/04/14 10:09:49;;;;;;;;;20.33;16.33;;;;;24.22;45.29;101965.34;5071698;28;45520;-72
2022/04/14 10:12:17;;;;;;;;;21.00;16.33;;;;;24.41;43.70;101969.22;5067009;28;45309;-71
2022/04/14 10:15:03;;;;;;;;;13.33;13.33;;;;;24.67;41.86;101958.16;5076274;28;45486;-72
2022/04/14 10:17:40;;;;;;;;;14.33;13.33;;;;;24.42;40.84;101959.81;5084248;27;47423;-72
2022/04/14 10:20:07;;;;;;;;;13.00;11.67;;;;;24.35;42.70;101948.69;5073193;28;45695;-72
2022/04/14 10:22:34;;;;;;;;;13.67;12.00;;;;;24.74;41.76;101953.47;5052667;28;44728;-72
2022/04/14 10:25:01;;;;;;;;;15.33;15.33;;;;;24.88;38.96;101945.13;5074913;28;45483;-72
2022/04/14 10:27:27;;;;;;;;;16.33;16.33;;;;;25.02;41.15;101949.66;5065500;27;45511;-72
2022/04/14 10:29:53;;;;;;;;;11.00;11.00;;;;;25.06;40.77;101940.66;5082136;27;45505;-72
2022/04/14 10:32:18;;;;;;;;;14.33;12.33;;;;;25.22;40.42;101944.91;5063902;28;45270;-71
2022/04/14 10:34:46;;;;;;;;;16.67;14.00;;;;;25.09;39.28;101950.50;5073151;28;45643;-71
2022/04/14 10:37:19;;;;;;;;;15.67;14.33;;;;;25.42;40.25;101934.63;5068366;27;45339;-73
2022/04/14 10:39:51;;;;;;;;;14.67;12.33;;;;;25.63;39.30;101944.66;5071108;28;45442;-72
2022/04/14 10:42:24;;;;;;;;;13.67;10.67;;;;;25.78;39.96;101933.28;5077440;27;45311;-71
2022/04/14 10:44:51;;;;;;;;;10.33;7.67;;;;;25.95;38.77;101937.25;5074732;28;45417;-72
2022/04/14 10:47:34;;;;;;;;;8.00;8.00;;;;;26.04;37.00;101933.13;5065426;28;46594;-71
2022/04/14 10:50:02;;;;;;;;;7.67;7.67;;;;;26.02;36.43;101929.72;5069802;28;45662;-71
2022/04/14 10:52:28;;;;;;;;;11.67;10.67;;;;;25.84;35.93;101937.94;5063416;28;45366;-71
2022/04/14 10:55:01;;;;;;;;;8.00;8.00;;;;;25.83;36.62;101934.31;5075084;28;45547;-72
2022/04/14 10:57:42;;;;;;;;;7.00;7.00;;;;;26.02;38.00;101926.94;5069554;28;46309;-71
2022/04/14 11:00:30;;;;;;;;;6.00;6.00;;;;;26.39;35.96;101943.91;5075305;28;45412;-71
2022/04/14 11:03:02;;;;;;;;;10.33;8.67;;;;;26.37;36.04;101933.00;5059552;28;45441;-71
2022/04/14 11:05:40;;;;;;;;;9.00;8.67;;;;;26.47;35.43;101941.72;5071902;28;45498;-71
2022/04/14 11:08:22;;;;;;;;;12.00;10.33;;;;;25.28;35.84;101938.50;5081585;28;47307;-71